sensor_id;sensor_type;location;lat;lon;timestamp;pressure;altitude;pressure_sealevel;temperature;humidity
58759;BME280;46777;47.482;19.054;2022-08-19T00:00:08;99913.09;;;29.29;42.94
58759;BME280;46777;47.482;19.054;2022-08-19T00:02:53;99918.66;;;29.28;43.00
58759;BME280;46777;47.482;19.054;2022-08-19T00:05:38;99923.22;;;29.37;42.91
58759;BME280;46777;47.482;19.054;2022-08-19T00:08:23;99914.25;;;29.37;42.62
58759;BME280;46777;47.482;19.054;2022-08-19T00:11:08;99917.25;;;29.43;42.85
58759;BME280;46777;47.482;19.054;2022-08-19T00:13:53;99915.72;;;29.20;43.17
58759;BME280;46777;47.482;19.054;2022-08-19T00:16:40;99911.09;;;29.01;43.59
58759;BME280;46777;47.482;19.054;2022-08-19T00:19:25;99916.00;;;29.17;43.45
58759;BME280;46777;47.482;19.054;2022-08-19T00:22:10;99916.22;;;29.04;43.07
58759;BME280;46777;47.482;19.054;2022-08-19T00:24:55;99915.66;;;29.00;43.19
58759;BME280;46777;47.482;19.054;2022-08-19T00:27:40;99912.88;;;29.11;43.60
58759;BME280;46777;47.482;19.054;2022-08-19T00:30:25;99924.53;;;29.12;43.19
58759;BME280;46777;47.482;19.054;2022-08-19T00:33:12;99923.06;;;28.98;43.32
58759;BME280;46777;47.482;19.054;2022-08-19T00:35:59;99921.06;;;29.00;43.93
58759;BME280;46777;47.482;19.054;2022-08-19T00:38:44;99921.41;;;28.86;44.30
58759;BME280;46777;47.482;19.054;2022-08-19T00:41:28;99921.06;;;29.00;43.62
58759;BME280;46777;47.482;19.054;2022-08-19T00:44:18;99916.47;;;28.91;44.19
58759;BME280;46777;47.482;19.054;2022-08-19T00:47:04;99915.88;;;28.87;44.01
58759;BME280;46777;47.482;19.054;2022-08-19T00:49:55;99922.44;;;28.85;44.19
58759;BME280;46777;47.482;19.054;2022-08-19T00:52:43;99910.59;;;28.86;44.53
58759;BME280;46777;47.482;19.054;2022-08-19T00:55:30;99906.63;;;28.80;44.64
58759;BME280;46777;47.482;19.054;2022-08-19T00:58:19;99903.94;;;28.90;44.30
58759;BME280;46777;47.482;19.054;2022-08-19T01:01:04;99906.09;;;28.65;45.50
58759;BME280;46777;47.482;19.054;2022-08-19T01:03:49;99906.44;;;28.72;45.35
58759;BME280;46777;47.482;19.054;2022-08-19T01:06:36;99905.59;;;28.71;44.94
58759;BME280;46777;47.482;19.054;2022-08-19T01:09:22;99911.81;;;28.72;45.03
58759;BME280;46777;47.482;19.054;2022-08-19T01:12:07;99910.66;;;28.65;44.89
58759;BME280;46777;47.482;19.054;2022-08-19T01:14:53;99915.91;;;28.66;44.71
58759;BME280;46777;47.482;19.054;2022-08-19T01:17:40;99911.81;;;28.72;44.54
58759;BME280;46777;47.482;19.054;2022-08-19T01:20:25;99899.44;;;28.69;44.87
58759;BME280;46777;47.482;19.054;2022-08-19T01:23:11;99904.53;;;28.63;44.92
58759;BME280;46777;47.482;19.054;2022-08-19T01:25:56;99897.84;;;28.88;44.78
58759;BME280;46777;47.482;19.054;2022-08-19T01:28:42;99895.97;;;28.88;44.69
58759;BME280;46777;47.482;19.054;2022-08-19T01:31:29;99903.31;;;28.76;44.52
58759;BME280;46777;47.482;19.054;2022-08-19T01:34:16;99892.72;;;28.94;44.65
58759;BME280;46777;47.482;19.054;2022-08-19T01:37:06;99887.19;;;28.96;44.30
58759;BME280;46777;47.482;19.054;2022-08-19T01:39:52;99878.38;;;28.94;44.05
58759;BME280;46777;47.482;19.054;2022-08-19T01:42:38;99889.19;;;29.04;44.12
58759;BME280;46777;47.482;19.054;2022-08-19T01:45:25;99889.47;;;28.91;44.61
58759;BME280;46777;47.482;19.054;2022-08-19T01:48:10;99886.91;;;28.89;44.96
58759;BME280;46777;47.482;19.054;2022-08-19T01:50:55;99884.34;;;28.88;45.54
58759;BME280;46777;47.482;19.054;2022-08-19T01:53:41;99879.72;;;28.78;45.52
58759;BME280;46777;47.482;19.054;2022-08-19T01:56:26;99870.50;;;28.81;45.28
58759;BME280;46777;47.482;19.054;2022-08-19T01:59:14;99863.50;;;28.78;45.80
58759;BME280;46777;47.482;19.054;2022-08-19T02:02:01;99871.00;;;28.65;46.16
58759;BME280;46777;47.482;19.054;2022-08-19T02:04:46;99882.69;;;28.54;46.24
58759;BME280;46777;47.482;19.054;2022-08-19T02:07:30;99866.50;;;28.54;46.76
58759;BME280;46777;47.482;19.054;2022-08-19T02:10:19;99861.06;;;28.45;47.46
58759;BME280;46777;47.482;19.054;2022-08-19T02:13:04;99859.97;;;27.94;48.38
58759;BME280;46777;47.482;19.054;2022-08-19T02:15:49;99850.19;;;28.35;47.31
58759;BME280;46777;47.482;19.054;2022-08-19T02:18:34;99855.09;;;28.20;47.35
58759;BME280;46777;47.482;19.054;2022-08-19T02:21:21;99858.84;;;28.29;47.89
58759;BME280;46777;47.482;19.054;2022-08-19T02:24:06;99855.75;;;28.12;47.33
58759;BME280;46777;47.482;19.054;2022-08-19T02:26:51;99855.13;;;28.08;47.70
58759;BME280;46777;47.482;19.054;2022-08-19T02:29:36;99852.84;;;28.25;47.93
58759;BME280;46777;47.482;19.054;2022-08-19T02:32:20;99846.00;;;27.67;48.83
58759;BME280;46777;47.482;19.054;2022-08-19T02:35:06;99847.97;;;27.65;48.91
58759;BME280;46777;47.482;19.054;2022-08-19T02:37:50;99853.19;;;27.46;49.59
58759;BME280;46777;47.482;19.054;2022-08-19T02:41:03;99869.13;;;27.70;48.16
58759;BME280;46777;47.482;19.054;2022-08-19T02:43:48;99870.56;;;27.53;49.64
58759;BME280;46777;47.482;19.054;2022-08-19T02:46:33;99861.81;;;27.61;48.41
58759;BME280;46777;47.482;19.054;2022-08-19T02:49:18;99873.53;;;27.38;48.34
58759;BME280;46777;47.482;19.054;2022-08-19T02:52:03;99874.22;;;27.52;48.45
58759;BME280;46777;47.482;19.054;2022-08-19T02:54:48;99876.22;;;27.27;48.46
58759;BME280;46777;47.482;19.054;2022-08-19T02:57:33;99875.72;;;27.45;47.97
58759;BME280;46777;47.482;19.054;2022-08-19T03:00:18;99884.44;;;27.26;48.43
58759;BME280;46777;47.482;19.054;2022-08-19T03:03:03;99903.44;;;27.01;49.02
58759;BME280;46777;47.482;19.054;2022-08-19T03:05:48;99892.16;;;26.85;49.33
58759;BME280;46777;47.482;19.054;2022-08-19T03:08:33;99889.44;;;26.62;50.34
58759;BME280;46777;47.482;19.054;2022-08-19T03:11:44;99889.34;;;26.87;50.14
58759;BME280;46777;47.482;19.054;2022-08-19T03:14:30;99899.28;;;26.86;49.91
58759;BME280;46777;47.482;19.054;2022-08-19T03:17:15;99897.81;;;26.82;49.94
58759;BME280;46777;47.482;19.054;2022-08-19T03:20:00;99911.03;;;26.96;49.36
58759;BME280;46777;47.482;19.054;2022-08-19T03:22:45;99911.25;;;26.82;49.90
58759;BME280;46777;47.482;19.054;2022-08-19T03:25:30;99914.34;;;26.89;49.80
58759;BME280;46777;47.482;19.054;2022-08-19T03:28:16;99911.69;;;26.64;50.08
58759;BME280;46777;47.482;19.054;2022-08-19T03:31:04;99912.88;;;26.84;50.12
58759;BME280;46777;47.482;19.054;2022-08-19T03:33:50;99904.03;;;26.82;49.51
58759;BME280;46777;47.482;19.054;2022-08-19T03:36:35;99907.19;;;26.65;50.08
58759;BME280;46777;47.482;19.054;2022-08-19T03:39:20;99918.13;;;26.97;49.16
58759;BME280;46777;47.482;19.054;2022-08-19T03:42:05;99920.56;;;27.12;48.91
58759;BME280;46777;47.482;19.054;2022-08-19T03:44:50;99911.22;;;26.59;50.24
58759;BME280;46777;47.482;19.054;2022-08-19T03:47:35;99915.59;;;26.60;50.06
58759;BME280;46777;47.482;19.054;2022-08-19T03:50:20;99932.81;;;26.82;49.28
58759;BME280;46777;47.482;19.054;2022-08-19T03:53:04;99920.09;;;26.95;49.21
58759;BME280;46777;47.482;19.054;2022-08-19T03:55:51;99921.28;;;26.68;49.98
58759;BME280;46777;47.482;19.054;2022-08-19T03:58:35;99923.16;;;26.91;49.26
58759;BME280;46777;47.482;19.054;2022-08-19T04:01:24;99927.66;;;26.79;49.54
58759;BME280;46777;47.482;19.054;2022-08-19T04:04:10;99936.03;;;26.63;50.04
58759;BME280;46777;47.482;19.054;2022-08-19T04:06:56;99931.03;;;26.58;50.69
58759;BME280;46777;47.482;19.054;2022-08-19T04:09:41;99940.81;;;26.59;50.64
58759;BME280;46777;47.482;19.054;2022-08-19T04:12:26;99935.47;;;26.24;51.40
58759;BME280;46777;47.482;19.054;2022-08-19T04:15:11;99936.06;;;26.27;51.06
58759;BME280;46777;47.482;19.054;2022-08-19T04:17:56;99949.28;;;26.19;51.72
58759;BME280;46777;47.482;19.054;2022-08-19T04:20:46;99956.56;;;26.41;50.75
58759;BME280;46777;47.482;19.054;2022-08-19T04:23:31;99952.16;;;26.40;50.90
58759;BME280;46777;47.482;19.054;2022-08-19T04:26:22;99944.78;;;26.78;49.93
58759;BME280;46777;47.482;19.054;2022-08-19T04:29:10;99943.34;;;26.96;49.09
58759;BME280;46777;47.482;19.054;2022-08-19T04:31:56;99945.81;;;26.99;49.19
58759;BME280;46777;47.482;19.054;2022-08-19T04:34:41;99949.47;;;27.10;49.11
58759;BME280;46777;47.482;19.054;2022-08-19T04:37:27;99959.63;;;26.83;49.86
58759;BME280;46777;47.482;19.054;2022-08-19T04:40:11;99966.81;;;26.72;49.26
58759;BME280;46777;47.482;19.054;2022-08-19T04:43:15;99962.13;;;26.62;49.92
58759;BME280;46777;47.482;19.054;2022-08-19T04:46:08;99970.63;;;26.80;49.85
58759;BME280;46777;47.482;19.054;2022-08-19T04:48:53;99962.19;;;26.85;49.67
58759;BME280;46777;47.482;19.054;2022-08-19T04:51:40;99961.44;;;26.94;49.47
58759;BME280;46777;47.482;19.054;2022-08-19T04:54:26;99950.44;;;26.97;50.08
58759;BME280;46777;47.482;19.054;2022-08-19T04:57:11;99946.03;;;27.08;48.83
58759;BME280;46777;47.482;19.054;2022-08-19T04:59:56;99958.91;;;27.15;48.25
58759;BME280;46777;47.482;19.054;2022-08-19T05:02:41;99964.19;;;27.17;48.42
58759;BME280;46777;47.482;19.054;2022-08-19T05:05:26;99951.56;;;27.40;48.29
58759;BME280;46777;47.482;19.054;2022-08-19T05:08:16;99957.06;;;27.27;47.61
58759;BME280;46777;47.482;19.054;2022-08-19T05:11:10;99962.72;;;27.35;47.15
58759;BME280;46777;47.482;19.054;2022-08-19T05:13:55;99968.09;;;27.47;47.58
58759;BME280;46777;47.482;19.054;2022-08-19T05:16:40;99963.22;;;27.41;47.83
58759;BME280;46777;47.482;19.054;2022-08-19T05:19:26;99961.94;;;27.11;48.63
58759;BME280;46777;47.482;19.054;2022-08-19T05:22:29;99961.50;;;27.40;47.91
58759;BME280;46777;47.482;19.054;2022-08-19T05:25:19;99952.91;;;27.12;48.67
58759;BME280;46777;47.482;19.054;2022-08-19T05:28:04;99963.19;;;27.18;48.62
58759;BME280;46777;47.482;19.054;2022-08-19T05:30:49;99961.38;;;27.52;47.93
58759;BME280;46777;47.482;19.054;2022-08-19T05:33:35;99965.03;;;27.40;47.76
58759;BME280;46777;47.482;19.054;2022-08-19T05:36:20;99964.41;;;27.48;48.56
58759;BME280;46777;47.482;19.054;2022-08-19T05:39:06;99968.56;;;27.63;47.36
58759;BME280;46777;47.482;19.054;2022-08-19T05:42:17;99967.47;;;27.66;47.81
58759;BME280;46777;47.482;19.054;2022-08-19T05:45:02;99967.03;;;28.04;46.69
58759;BME280;46777;47.482;19.054;2022-08-19T05:47:48;99959.91;;;28.03;46.85
58759;BME280;46777;47.482;19.054;2022-08-19T05:50:35;99964.78;;;28.10;46.49
58759;BME280;46777;47.482;19.054;2022-08-19T05:53:20;99968.19;;;28.12;46.54
58759;BME280;46777;47.482;19.054;2022-08-19T05:56:11;99966.66;;;27.98;46.67
58759;BME280;46777;47.482;19.054;2022-08-19T05:58:57;99958.88;;;28.16;46.44
58759;BME280;46777;47.482;19.054;2022-08-19T06:01:45;99967.31;;;28.43;45.89
58759;BME280;46777;47.482;19.054;2022-08-19T06:04:30;99963.66;;;28.45;45.42
58759;BME280;46777;47.482;19.054;2022-08-19T06:07:16;99967.50;;;28.63;45.14
58759;BME280;46777;47.482;19.054;2022-08-19T06:10:03;99961.94;;;28.43;46.10
58759;BME280;46777;47.482;19.054;2022-08-19T06:12:48;99960.47;;;28.39;45.75
58759;BME280;46777;47.482;19.054;2022-08-19T06:15:32;99961.66;;;28.47;45.76
58759;BME280;46777;47.482;19.054;2022-08-19T06:18:17;99964.94;;;28.62;45.50
58759;BME280;46777;47.482;19.054;2022-08-19T06:21:02;99963.66;;;28.87;44.53
58759;BME280;46777;47.482;19.054;2022-08-19T06:23:48;99962.44;;;28.70;45.17
58759;BME280;46777;47.482;19.054;2022-08-19T06:26:37;99953.97;;;28.84;44.86
58759;BME280;46777;47.482;19.054;2022-08-19T06:29:23;99959.97;;;28.88;44.93
58759;BME280;46777;47.482;19.054;2022-08-19T06:32:08;99948.16;;;28.89;44.67
58759;BME280;46777;47.482;19.054;2022-08-19T06:34:53;99939.97;;;29.00;44.29
58759;BME280;46777;47.482;19.054;2022-08-19T06:37:39;99934.72;;;29.29;43.71
58759;BME280;46777;47.482;19.054;2022-08-19T06:40:24;99947.03;;;29.53;43.33
58759;BME280;46777;47.482;19.054;2022-08-19T06:43:11;99948.56;;;29.56;43.63
58759;BME280;46777;47.482;19.054;2022-08-19T06:45:56;99938.63;;;29.66;43.09
58759;BME280;46777;47.482;19.054;2022-08-19T06:48:41;99937.00;;;29.94;42.15
58759;BME280;46777;47.482;19.054;2022-08-19T06:51:26;99941.56;;;29.94;42.16
58759;BME280;46777;47.482;19.054;2022-08-19T06:54:11;99935.56;;;30.00;42.39
58759;BME280;46777;47.482;19.054;2022-08-19T06:57:00;99942.00;;;29.99;42.75
58759;BME280;46777;47.482;19.054;2022-08-19T06:59:47;99943.41;;;30.32;41.72
58759;BME280;46777;47.482;19.054;2022-08-19T07:02:32;99951.22;;;30.35;42.17
58759;BME280;46777;47.482;19.054;2022-08-19T07:05:17;99950.38;;;30.55;41.03
58759;BME280;46777;47.482;19.054;2022-08-19T07:08:02;99959.94;;;30.39;41.88
58759;BME280;46777;47.482;19.054;2022-08-19T07:10:47;99963.59;;;30.77;40.53
58759;BME280;46777;47.482;19.054;2022-08-19T07:13:34;99969.75;;;30.40;41.35
58759;BME280;46777;47.482;19.054;2022-08-19T07:16:21;99971.78;;;30.19;41.88
58759;BME280;46777;47.482;19.054;2022-08-19T07:19:05;99980.59;;;30.01;41.95
58759;BME280;46777;47.482;19.054;2022-08-19T07:21:51;99969.41;;;29.65;43.36
58759;BME280;46777;47.482;19.054;2022-08-19T07:24:38;99973.59;;;29.98;42.84
58759;BME280;46777;47.482;19.054;2022-08-19T07:27:23;99975.41;;;29.78;42.68
58759;BME280;46777;47.482;19.054;2022-08-19T07:30:09;99973.47;;;30.20;42.38
58759;BME280;46777;47.482;19.054;2022-08-19T07:32:54;99983.44;;;30.58;41.46
58759;BME280;46777;47.482;19.054;2022-08-19T07:35:40;99968.31;;;30.75;41.00
58759;BME280;46777;47.482;19.054;2022-08-19T07:38:25;99971.56;;;30.89;41.01
58759;BME280;46777;47.482;19.054;2022-08-19T07:41:13;99969.75;;;30.69;41.17
58759;BME280;46777;47.482;19.054;2022-08-19T07:44:01;99956.91;;;31.19;40.03
58759;BME280;46777;47.482;19.054;2022-08-19T07:46:50;99962.63;;;31.53;39.75
58759;BME280;46777;47.482;19.054;2022-08-19T07:49:36;99950.91;;;31.99;39.34
58759;BME280;46777;47.482;19.054;2022-08-19T07:52:21;99950.91;;;32.35;37.81
58759;BME280;46777;47.482;19.054;2022-08-19T07:55:08;99953.63;;;32.79;36.83
58759;BME280;46777;47.482;19.054;2022-08-19T07:57:54;99956.84;;;33.01;36.77
58759;BME280;46777;47.482;19.054;2022-08-19T08:00:39;99953.91;;;33.28;36.13
58759;BME280;46777;47.482;19.054;2022-08-19T08:03:25;99951.34;;;33.61;34.15
58759;BME280;46777;47.482;19.054;2022-08-19T08:06:30;99951.69;;;33.66;33.99
58759;BME280;46777;47.482;19.054;2022-08-19T08:09:36;99948.03;;;34.00;33.31
58759;BME280;46777;47.482;19.054;2022-08-19T08:12:28;99947.00;;;34.10;33.97
58759;BME280;46777;47.482;19.054;2022-08-19T08:15:15;99951.00;;;33.73;33.66
58759;BME280;46777;47.482;19.054;2022-08-19T08:18:00;99946.38;;;34.49;32.38
58759;BME280;46777;47.482;19.054;2022-08-19T08:20:45;99947.72;;;34.37;32.87
58759;BME280;46777;47.482;19.054;2022-08-19T08:23:30;99957.59;;;34.62;32.79
58759;BME280;46777;47.482;19.054;2022-08-19T08:26:15;99952.28;;;34.69;31.65
58759;BME280;46777;47.482;19.054;2022-08-19T08:29:01;99951.28;;;34.78;31.81
58759;BME280;46777;47.482;19.054;2022-08-19T08:31:47;99952.06;;;35.03;31.81
58759;BME280;46777;47.482;19.054;2022-08-19T08:34:32;99948.59;;;35.26;30.98
58759;BME280;46777;47.482;19.054;2022-08-19T08:37:17;99950.19;;;35.52;32.22
58759;BME280;46777;47.482;19.054;2022-08-19T08:40:09;99947.13;;;35.47;30.92
58759;BME280;46777;47.482;19.054;2022-08-19T08:43:24;99943.16;;;35.18;28.69
58759;BME280;46777;47.482;19.054;2022-08-19T08:46:26;99934.25;;;35.24;28.23
58759;BME280;46777;47.482;19.054;2022-08-19T08:52:31;99914.91;;;35.73;27.89
58759;BME280;46777;47.482;19.054;2022-08-19T08:55:23;99917.84;;;36.56;27.76
58759;BME280;46777;47.482;19.054;2022-08-19T08:58:39;99915.47;;;36.38;27.39
58759;BME280;46777;47.482;19.054;2022-08-19T09:01:26;99913.78;;;36.37;27.53
58759;BME280;46777;47.482;19.054;2022-08-19T09:04:12;99919.31;;;36.29;27.35
58759;BME280;46777;47.482;19.054;2022-08-19T09:13:36;99917.19;;;36.39;28.09
58759;BME280;46777;47.482;19.054;2022-08-19T09:16:25;99918.75;;;36.10;28.29
58759;BME280;46777;47.482;19.054;2022-08-19T09:19:11;99915.59;;;36.45;27.67
58759;BME280;46777;47.482;19.054;2022-08-19T09:21:56;99912.75;;;36.91;27.41
58759;BME280;46777;47.482;19.054;2022-08-19T09:24:41;99908.25;;;37.35;27.15
58759;BME280;46777;47.482;19.054;2022-08-19T09:27:27;99911.78;;;36.99;26.85
58759;BME280;46777;47.482;19.054;2022-08-19T09:30:18;99902.00;;;37.56;26.22
58759;BME280;46777;47.482;19.054;2022-08-19T09:33:03;99897.91;;;37.67;25.99
58759;BME280;46777;47.482;19.054;2022-08-19T09:35:48;99889.44;;;38.55;26.00
58759;BME280;46777;47.482;19.054;2022-08-19T09:38:35;99894.81;;;38.70;26.37
58759;BME280;46777;47.482;19.054;2022-08-19T09:41:22;99882.88;;;38.84;25.34
58759;BME280;46777;47.482;19.054;2022-08-19T09:44:07;99888.31;;;39.13;24.30
58759;BME280;46777;47.482;19.054;2022-08-19T09:46:52;99877.53;;;38.41;25.05
58759;BME280;46777;47.482;19.054;2022-08-19T09:49:37;99872.13;;;38.90;23.93
58759;BME280;46777;47.482;19.054;2022-08-19T09:52:23;99866.09;;;39.08;23.93
58759;BME280;46777;47.482;19.054;2022-08-19T09:55:09;99866.59;;;39.86;23.41
58759;BME280;46777;47.482;19.054;2022-08-19T09:57:54;99857.66;;;39.57;23.74
58759;BME280;46777;47.482;19.054;2022-08-19T10:00:39;99854.09;;;40.37;24.66
58759;BME280;46777;47.482;19.054;2022-08-19T10:03:24;99851.84;;;39.26;23.45
58759;BME280;46777;47.482;19.054;2022-08-19T10:06:09;99848.16;;;40.34;22.47
58759;BME280;46777;47.482;19.054;2022-08-19T10:08:54;99848.75;;;40.76;22.25
58759;BME280;46777;47.482;19.054;2022-08-19T10:11:40;99861.06;;;39.60;22.74
58759;BME280;46777;47.482;19.054;2022-08-19T10:14:25;99860.06;;;40.07;22.29
58759;BME280;46777;47.482;19.054;2022-08-19T10:17:10;99844.81;;;40.52;21.67
58759;BME280;46777;47.482;19.054;2022-08-19T10:19:55;99859.47;;;39.37;22.81
58759;BME280;46777;47.482;19.054;2022-08-19T10:22:40;99843.94;;;40.51;22.54
58759;BME280;46777;47.482;19.054;2022-08-19T10:25:25;99846.38;;;39.26;23.51
58759;BME280;46777;47.482;19.054;2022-08-19T10:28:11;99837.09;;;40.74;22.04
58759;BME280;46777;47.482;19.054;2022-08-19T10:30:56;99832.78;;;41.50;21.14
58759;BME280;46777;47.482;19.054;2022-08-19T10:33:41;99848.63;;;40.17;21.91
58759;BME280;46777;47.482;19.054;2022-08-19T10:36:32;99842.59;;;40.74;21.46
58759;BME280;46777;47.482;19.054;2022-08-19T10:39:16;99840.69;;;40.81;21.90
58759;BME280;46777;47.482;19.054;2022-08-19T10:42:06;99835.28;;;41.13;21.38
58759;BME280;46777;47.482;19.054;2022-08-19T10:44:51;99829.16;;;42.07;20.33
58759;BME280;46777;47.482;19.054;2022-08-19T10:47:36;99825.13;;;42.34;20.51
58759;BME280;46777;47.482;19.054;2022-08-19T10:50:21;99838.44;;;40.51;21.30
58759;BME280;46777;47.482;19.054;2022-08-19T10:53:24;99829.72;;;41.58;21.06
58759;BME280;46777;47.482;19.054;2022-08-19T10:56:10;99830.81;;;42.77;19.92
58759;BME280;46777;47.482;19.054;2022-08-19T10:59:14;99845.06;;;43.11;19.84
58759;BME280;46777;47.482;19.054;2022-08-19T11:02:00;99831.34;;;42.85;19.39
58759;BME280;46777;47.482;19.054;2022-08-19T11:04:45;99825.56;;;42.31;19.67
58759;BME280;46777;47.482;19.054;2022-08-19T11:07:30;99829.59;;;43.21;18.51
58759;BME280;46777;47.482;19.054;2022-08-19T11:10:15;99826.09;;;45.39;16.37
58759;BME280;46777;47.482;19.054;2022-08-19T11:13:03;99823.78;;;47.71;15.04
58759;BME280;46777;47.482;19.054;2022-08-19T11:15:57;99822.84;;;48.93;13.76
58759;BME280;46777;47.482;19.054;2022-08-19T11:18:45;99827.28;;;47.94;14.10
58759;BME280;46777;47.482;19.054;2022-08-19T11:21:33;99824.41;;;49.84;13.45
58759;BME280;46777;47.482;19.054;2022-08-19T11:24:20;99819.06;;;49.87;12.87
58759;BME280;46777;47.482;19.054;2022-08-19T11:27:07;99810.50;;;48.74;13.75
58759;BME280;46777;47.482;19.054;2022-08-19T11:29:55;99807.03;;;49.15;13.83
58759;BME280;46777;47.482;19.054;2022-08-19T11:32:41;99813.56;;;51.33;12.64
58759;BME280;46777;47.482;19.054;2022-08-19T11:35:26;99812.88;;;50.47;12.36
58759;BME280;46777;47.482;19.054;2022-08-19T11:38:11;99815.09;;;49.11;13.25
58759;BME280;46777;47.482;19.054;2022-08-19T11:41:01;99823.75;;;51.88;11.67
58759;BME280;46777;47.482;19.054;2022-08-19T11:43:47;99806.22;;;51.77;11.44
58759;BME280;46777;47.482;19.054;2022-08-19T11:46:32;99799.81;;;50.97;11.80
58759;BME280;46777;47.482;19.054;2022-08-19T11:49:18;99796.97;;;50.37;13.02
58759;BME280;46777;47.482;19.054;2022-08-19T11:52:03;99799.19;;;51.80;11.36
58759;BME280;46777;47.482;19.054;2022-08-19T11:54:48;99785.94;;;52.44;11.39
58759;BME280;46777;47.482;19.054;2022-08-19T11:57:33;99785.38;;;53.09;10.74
58759;BME280;46777;47.482;19.054;2022-08-19T12:00:18;99787.88;;;51.61;11.37
58759;BME280;46777;47.482;19.054;2022-08-19T12:03:02;99776.31;;;51.72;11.28
58759;BME280;46777;47.482;19.054;2022-08-19T12:05:47;99789.28;;;52.22;11.13
58759;BME280;46777;47.482;19.054;2022-08-19T12:08:33;99779.50;;;49.54;12.74
58759;BME280;46777;47.482;19.054;2022-08-19T12:11:18;99775.78;;;50.96;11.73
58759;BME280;46777;47.482;19.054;2022-08-19T12:14:02;99786.47;;;47.67;13.83
58759;BME280;46777;47.482;19.054;2022-08-19T12:16:47;99784.53;;;44.17;16.74
58759;BME280;46777;47.482;19.054;2022-08-19T12:19:32;99785.25;;;44.36;17.02
58759;BME280;46777;47.482;19.054;2022-08-19T12:22:17;99784.78;;;44.16;16.78
58759;BME280;46777;47.482;19.054;2022-08-19T12:25:03;99794.59;;;43.03;17.55
58759;BME280;46777;47.482;19.054;2022-08-19T12:27:49;99780.94;;;46.63;14.99
58759;BME280;46777;47.482;19.054;2022-08-19T12:30:37;99790.31;;;44.28;16.67
58759;BME280;46777;47.482;19.054;2022-08-19T12:33:22;99790.50;;;43.79;17.07
58759;BME280;46777;47.482;19.054;2022-08-19T12:36:11;99791.69;;;43.59;17.18
58759;BME280;46777;47.482;19.054;2022-08-19T12:38:58;99783.19;;;45.25;15.46
58759;BME280;46777;47.482;19.054;2022-08-19T12:41:44;99777.69;;;45.59;15.43
58759;BME280;46777;47.482;19.054;2022-08-19T12:44:29;99779.44;;;45.02;15.83
58759;BME280;46777;47.482;19.054;2022-08-19T12:47:15;99770.72;;;46.46;14.63
58759;BME280;46777;47.482;19.054;2022-08-19T12:49:59;99762.78;;;49.90;12.48
58759;BME280;46777;47.482;19.054;2022-08-19T12:52:44;99756.06;;;49.71;12.53
58759;BME280;46777;47.482;19.054;2022-08-19T12:55:29;99743.22;;;50.71;11.62
58759;BME280;46777;47.482;19.054;2022-08-19T12:58:14;99740.84;;;50.39;12.00
58759;BME280;46777;47.482;19.054;2022-08-19T13:01:06;99743.75;;;50.08;12.31
58759;BME280;46777;47.482;19.054;2022-08-19T13:03:51;99754.78;;;50.49;11.99
58759;BME280;46777;47.482;19.054;2022-08-19T13:06:36;99743.75;;;50.08;12.01
58759;BME280;46777;47.482;19.054;2022-08-19T13:09:21;99757.09;;;51.95;11.24
58759;BME280;46777;47.482;19.054;2022-08-19T13:12:06;99758.84;;;51.86;10.89
58759;BME280;46777;47.482;19.054;2022-08-19T13:14:53;99738.47;;;52.10;10.97
58759;BME280;46777;47.482;19.054;2022-08-19T13:17:38;99742.84;;;51.67;11.03
58759;BME280;46777;47.482;19.054;2022-08-19T13:20:23;99733.50;;;53.26;10.25
58759;BME280;46777;47.482;19.054;2022-08-19T13:23:08;99729.88;;;49.20;12.55
58759;BME280;46777;47.482;19.054;2022-08-19T13:26:02;99729.16;;;51.26;11.14
58759;BME280;46777;47.482;19.054;2022-08-19T13:28:48;99733.34;;;44.96;15.42
58759;BME280;46777;47.482;19.054;2022-08-19T13:31:51;99736.38;;;43.35;17.06
58759;BME280;46777;47.482;19.054;2022-08-19T13:34:55;99735.03;;;43.92;16.63
58759;BME280;46777;47.482;19.054;2022-08-19T13:37:40;99730.03;;;43.47;16.79
58759;BME280;46777;47.482;19.054;2022-08-19T13:40:25;99734.88;;;43.21;17.25
58759;BME280;46777;47.482;19.054;2022-08-19T13:43:10;99722.53;;;42.26;18.24
58759;BME280;46777;47.482;19.054;2022-08-19T13:45:55;99725.19;;;42.14;18.19
58759;BME280;46777;47.482;19.054;2022-08-19T13:48:40;99737.41;;;41.81;18.53
58759;BME280;46777;47.482;19.054;2022-08-19T13:51:25;99718.13;;;41.99;18.51
58759;BME280;46777;47.482;19.054;2022-08-19T13:54:11;99706.66;;;43.31;17.54
58759;BME280;46777;47.482;19.054;2022-08-19T13:56:56;99712.44;;;41.76;19.47
58759;BME280;46777;47.482;19.054;2022-08-19T13:59:41;99716.97;;;39.55;23.09
58759;BME280;46777;47.482;19.054;2022-08-19T14:02:26;99734.38;;;39.01;24.21
58759;BME280;46777;47.482;19.054;2022-08-19T14:05:14;99760.94;;;38.17;26.72
58759;BME280;46777;47.482;19.054;2022-08-19T14:07:59;99752.06;;;38.08;27.01
58759;BME280;46777;47.482;19.054;2022-08-19T14:10:44;99744.69;;;37.80;27.39
58759;BME280;46777;47.482;19.054;2022-08-19T14:13:29;99738.28;;;38.30;27.31
58759;BME280;46777;47.482;19.054;2022-08-19T14:16:15;99741.50;;;38.75;26.81
58759;BME280;46777;47.482;19.054;2022-08-19T14:19:00;99736.63;;;38.35;27.49
58759;BME280;46777;47.482;19.054;2022-08-19T14:21:45;99746.16;;;37.55;28.01
58759;BME280;46777;47.482;19.054;2022-08-19T14:24:29;99751.25;;;38.14;26.95
58759;BME280;46777;47.482;19.054;2022-08-19T14:27:14;99746.09;;;36.90;28.69
58759;BME280;46777;47.482;19.054;2022-08-19T14:29:59;99739.53;;;36.54;29.51
58759;BME280;46777;47.482;19.054;2022-08-19T14:32:44;99732.28;;;36.76;28.80
58759;BME280;46777;47.482;19.054;2022-08-19T14:35:30;99747.94;;;36.38;29.18
58759;BME280;46777;47.482;19.054;2022-08-19T14:38:19;99748.03;;;36.30;29.28
58759;BME280;46777;47.482;19.054;2022-08-19T14:41:16;99746.44;;;36.35;28.98